Terminal Aerodrome Forecast
Issued by NWS Sterling, VA

Current Version | Previous Version | Text Only | Print | Product List | Glossary Off
Versions: 1 2 3 4 5 6 7 8 9 10 11 12 13 14 15 16 17 18 19 20 21 22 23 24 25

000
FTUS41 KLWX 222000 AAA
TAFIAD
TAF AMD
KIAD 222051Z 2221/2324 18009KT P6SM BKN050
     FM222300 17008KT P6SM SCT050
     FM230100 17006KT P6SM SCT250
     FM231000 19005KT 5SM BR SCT250
     FM231300 21005KT P6SM SCT250
     FM231700 22007KT P6SM SCT050
     FM231800 23008KT P6SM SCT040 BKN050=

USA.gov is the U.S. government's official web portal to all federal, state and local government web resources and services.